createdAt,value
2023-04-21T00:01:27.182Z,12.10
2023-04-21T00:03:55.643Z,13.03
2023-04-21T00:06:23.484Z,13.27
2023-04-21T00:08:51.105Z,13.33
2023-04-21T00:11:20.712Z,12.83
2023-04-21T00:13:47.629Z,13.33
2023-04-21T00:16:14.560Z,12.87
2023-04-21T00:18:43.323Z,12.63
2023-04-21T00:21:10.573Z,12.77
2023-04-21T00:23:37.476Z,12.03
2023-04-21T00:26:04.630Z,12.47
2023-04-21T00:28:32.093Z,12.17
2023-04-21T00:30:59.877Z,12.47
2023-04-21T00:33:28.605Z,12.13
2023-04-21T00:35:59.070Z,12.47
2023-04-21T00:38:27.683Z,12.73
2023-04-21T00:40:54.594Z,13.07
2023-04-21T00:43:21.822Z,12.93
2023-04-21T00:45:50.070Z,13.43
2023-04-21T00:48:17.678Z,12.87
2023-04-21T00:50:45.429Z,12.17
2023-04-21T00:53:15.877Z,12.30
2023-04-21T00:55:43.028Z,12.60
2023-04-21T00:58:10.001Z,13.70
2023-04-21T01:00:38.351Z,13.03
2023-04-21T01:03:06.798Z,13.20
2023-04-21T01:05:34.213Z,13.30
2023-04-21T01:08:02.366Z,14.13
2023-04-21T01:10:30.047Z,12.87
2023-04-21T01:12:56.993Z,12.90
2023-04-21T01:15:28.443Z,14.23
2023-04-21T01:17:55.427Z,13.47
2023-04-21T01:20:22.370Z,14.33
2023-04-21T01:22:51.271Z,13.27
2023-04-21T01:25:18.959Z,14.03
2023-04-21T01:27:46.065Z,14.03
2023-04-21T01:30:14.245Z,13.20
2023-04-21T01:32:42.787Z,13.40
2023-04-21T01:35:14.483Z,13.23
2023-04-21T01:37:44.720Z,13.00
2023-04-21T01:40:16.476Z,12.50
2023-04-21T01:42:45.975Z,12.40
2023-04-21T01:45:18.238Z,11.73
2023-04-21T01:47:50.882Z,11.77
2023-04-21T01:50:22.851Z,11.30
2023-04-21T01:52:52.942Z,11.13
2023-04-21T01:55:23.423Z,11.57
2023-04-21T01:57:55.266Z,12.93
2023-04-21T02:00:29.792Z,12.00
2023-04-21T02:02:59.343Z,12.17
2023-04-21T02:05:29.184Z,11.70
2023-04-21T02:07:58.933Z,11.90
2023-04-21T02:10:27.800Z,12.03
2023-04-21T02:12:56.777Z,13.17
2023-04-21T02:15:25.228Z,12.00
2023-04-21T02:17:56.925Z,13.20
2023-04-21T02:20:30.982Z,12.53
2023-04-21T02:22:59.097Z,13.23
2023-04-21T02:25:33.104Z,12.27
2023-04-21T02:28:05.445Z,12.33
2023-04-21T02:30:34.376Z,12.80
2023-04-21T02:33:05.568Z,11.33
2023-04-21T02:35:35.974Z,11.70
2023-04-21T02:38:10.752Z,11.43
2023-04-21T02:40:40.817Z,11.13
2023-04-21T02:43:16.047Z,11.30
2023-04-21T02:45:44.740Z,11.70
2023-04-21T02:48:14.808Z,12.03
2023-04-21T02:50:50.334Z,12.17
2023-04-21T02:53:19.630Z,12.00
2023-04-21T02:55:47.054Z,11.10
2023-04-21T02:58:18.223Z,11.57
2023-04-21T03:00:45.974Z,12.20
2023-04-21T03:03:20.267Z,11.90
2023-04-21T03:05:48.787Z,12.30
2023-04-21T03:08:19.784Z,12.20
2023-04-21T03:10:52.573Z,11.67
2023-04-21T03:13:26.118Z,11.67
2023-04-21T03:15:57.494Z,11.70
2023-04-21T03:18:27.269Z,11.53
2023-04-21T03:21:00.231Z,11.10
2023-04-21T03:23:30.684Z,12.30
2023-04-21T03:25:59.902Z,11.10
2023-04-21T03:28:30.775Z,11.67
2023-04-21T03:33:45.245Z,10.93
2023-04-21T03:36:18.041Z,11.83
2023-04-21T03:38:51.430Z,12.10
2023-04-21T03:41:18.787Z,11.80
2023-04-21T03:43:47.010Z,12.67
2023-04-21T03:46:23.030Z,12.17
2023-04-21T03:48:50.448Z,12.80
2023-04-21T03:51:17.819Z,12.23
2023-04-21T03:53:44.770Z,11.80
2023-04-21T03:56:16.672Z,12.77
2023-04-21T03:58:43.570Z,12.53
2023-04-21T04:01:10.478Z,12.87
2023-04-21T04:03:37.584Z,12.50
2023-04-21T04:06:04.989Z,12.77
2023-04-21T04:08:33.739Z,12.90
2023-04-21T04:11:00.738Z,12.07
2023-04-21T04:13:29.457Z,12.20
2023-04-21T04:15:56.456Z,12.20
2023-04-21T04:18:23.470Z,12.60
2023-04-21T04:20:50.483Z,12.50
2023-04-21T04:23:17.487Z,12.67
2023-04-21T04:25:44.875Z,12.50
2023-04-21T04:28:12.709Z,12.43
2023-04-21T04:30:39.766Z,12.63
2023-04-21T04:33:06.930Z,13.00
2023-04-21T04:35:34.050Z,13.13
2023-04-21T04:38:02.458Z,12.80
2023-04-21T04:40:30.464Z,13.07
2023-04-21T04:42:58.142Z,13.07
2023-04-21T04:45:27.144Z,13.47
2023-04-21T04:47:54.152Z,12.93
2023-04-21T04:50:21.389Z,12.63
2023-04-21T04:52:49.772Z,12.90
2023-04-21T04:55:18.843Z,12.80
2023-04-21T04:57:46.149Z,12.93
2023-04-21T05:00:14.794Z,12.33
2023-04-21T05:02:42.116Z,12.73
2023-04-21T05:05:09.313Z,12.33
2023-04-21T05:07:36.925Z,13.00
2023-04-21T05:10:04.778Z,12.20
2023-04-21T05:12:32.745Z,12.20
2023-04-21T05:14:59.714Z,12.33
2023-04-21T05:17:27.361Z,12.70
2023-04-21T05:19:54.527Z,12.20
2023-04-21T05:22:21.480Z,13.73
2023-04-21T05:24:48.654Z,13.33
2023-04-21T05:27:15.718Z,13.23
2023-04-21T05:29:42.638Z,14.10
2023-04-21T05:32:12.343Z,13.20
2023-04-21T05:34:40.175Z,13.43
2023-04-21T05:37:07.183Z,13.73
2023-04-21T05:39:34.108Z,13.57
2023-04-21T05:42:02.435Z,12.80
2023-04-21T05:44:31.411Z,13.67
2023-04-21T05:46:58.811Z,13.20
2023-04-21T05:49:25.974Z,13.83
2023-04-21T05:51:53.377Z,12.60
2023-04-21T05:54:20.630Z,12.63
2023-04-21T05:56:48.475Z,13.90
2023-04-21T05:59:15.899Z,13.67
2023-04-21T06:01:44.131Z,14.03
2023-04-21T06:04:11.375Z,16.80
2023-04-21T06:06:38.779Z,17.10
2023-04-21T06:09:06.515Z,18.60
2023-04-21T06:11:33.570Z,17.60
2023-04-21T06:14:02.058Z,17.33
2023-04-21T06:16:32.208Z,16.50
2023-04-21T06:19:00.392Z,15.97
2023-04-21T06:21:30.169Z,15.67
2023-04-21T06:23:57.192Z,14.80
2023-04-21T06:26:24.241Z,14.43
2023-04-21T06:28:51.415Z,13.97
2023-04-21T06:31:19.871Z,14.33
2023-04-21T06:33:48.114Z,13.67
2023-04-21T06:36:16.202Z,14.27
2023-04-21T06:38:45.970Z,14.53
2023-04-21T06:41:14.705Z,14.43
2023-04-21T06:43:42.184Z,13.80
2023-04-21T06:46:09.360Z,14.03
2023-04-21T06:48:38.410Z,12.80
2023-04-21T06:51:05.454Z,12.07
2023-04-21T06:53:32.564Z,12.00
2023-04-21T06:55:59.556Z,10.87
2023-04-21T06:58:26.658Z,10.80
2023-04-21T07:00:53.689Z,10.87
2023-04-21T07:03:21.030Z,9.90
2023-04-21T07:05:48.303Z,10.20
2023-04-21T07:08:15.328Z,10.07
2023-04-21T07:10:42.356Z,9.50
2023-04-21T07:13:10.071Z,8.60
2023-04-21T07:15:37.213Z,9.17
2023-04-21T07:18:04.403Z,8.90
2023-04-21T07:20:31.908Z,8.37
2023-04-21T07:22:58.857Z,8.40
2023-04-21T07:25:26.234Z,8.33
2023-04-21T07:27:53.848Z,8.77
2023-04-21T07:30:20.955Z,8.30
2023-04-21T07:32:47.916Z,7.70
2023-04-21T07:35:17.739Z,7.87
2023-04-21T07:37:45.316Z,7.50
2023-04-21T07:40:12.844Z,7.90
2023-04-21T07:42:40.840Z,8.20
2023-04-21T07:45:08.259Z,7.90
2023-04-21T07:47:35.352Z,7.60
2023-04-21T07:50:02.548Z,7.70
2023-04-21T07:52:29.552Z,7.93
2023-04-21T07:54:56.524Z,7.03
2023-04-21T07:57:23.452Z,7.43
2023-04-21T07:59:50.490Z,7.57
2023-04-21T08:02:18.141Z,7.37
2023-04-21T08:04:45.214Z,7.33
2023-04-21T08:07:18.461Z,8.10
2023-04-21T08:09:45.989Z,7.33
2023-04-21T08:12:15.326Z,7.67
2023-04-21T08:14:44.008Z,7.30
2023-04-21T08:17:11.079Z,7.27
2023-04-21T08:19:38.008Z,7.40
2023-04-21T08:22:06.630Z,7.30
2023-04-21T08:24:34.815Z,7.43
2023-04-21T08:27:05.458Z,7.20
2023-04-21T08:29:32.946Z,6.37
2023-04-21T08:32:00.013Z,7.37
2023-04-21T08:34:27.872Z,6.87
2023-04-21T08:36:55.109Z,6.57
2023-04-21T08:39:23.145Z,6.97
2023-04-21T08:41:51.897Z,5.67
2023-04-21T08:44:19.725Z,6.40
2023-04-21T08:46:52.872Z,5.90
2023-04-21T08:49:21.643Z,5.67
2023-04-21T08:51:48.835Z,5.77
2023-04-21T08:54:17.541Z,5.87
2023-04-21T08:56:44.430Z,5.60
2023-04-21T08:59:11.449Z,5.53
2023-04-21T09:02:09.955Z,5.40
2023-04-21T09:04:42.066Z,5.30
2023-04-21T09:07:09.547Z,6.20
2023-04-21T09:09:57.326Z,6.70
2023-04-21T09:12:24.856Z,5.80
2023-04-21T09:14:51.832Z,6.67
2023-04-21T09:17:21.124Z,6.20
2023-04-21T09:19:48.983Z,6.30
2023-04-21T09:22:17.922Z,5.40
2023-04-21T09:24:47.096Z,6.10
2023-04-21T09:27:16.871Z,5.90
2023-04-21T09:29:50.836Z,5.53
2023-04-21T09:32:22.133Z,5.80
2023-04-21T09:34:49.890Z,6.30
2023-04-21T09:37:19.166Z,5.60
2023-04-21T09:40:03.616Z,5.13
2023-04-21T09:42:35.486Z,5.77
2023-04-21T09:47:40.167Z,4.83
2023-04-21T09:50:12.899Z,4.80
2023-04-21T09:52:40.464Z,5.23
2023-04-21T09:55:13.710Z,5.43
2023-04-21T09:57:44.972Z,6.67
2023-04-21T10:00:13.855Z,6.27
2023-04-21T10:02:45.228Z,4.90
2023-04-21T10:05:13.196Z,5.33
2023-04-21T10:07:42.815Z,4.73
2023-04-21T10:10:22.875Z,5.80
2023-04-21T10:12:51.230Z,4.80
2023-04-21T10:15:36.075Z,5.10
2023-04-21T10:18:22.766Z,4.30
2023-04-21T10:21:04.292Z,4.20
2023-04-21T10:23:46.512Z,4.47
2023-04-21T10:26:23.061Z,4.10
2023-04-21T10:29:04.020Z,4.97
2023-04-21T10:31:35.761Z,4.40
2023-04-21T10:34:08.644Z,4.80
2023-04-21T10:36:42.619Z,5.10
2023-04-21T10:39:12.379Z,4.90
2023-04-21T10:41:39.515Z,4.93
2023-04-21T10:44:14.452Z,4.70
2023-04-21T10:46:49.604Z,4.70
2023-04-21T10:49:30.694Z,4.33
2023-04-21T10:52:17.589Z,4.17
2023-04-21T10:54:56.512Z,4.30
2023-04-21T10:57:26.939Z,7.30
2023-04-21T10:59:56.681Z,7.43
2023-04-21T11:02:25.088Z,5.33
2023-04-21T11:04:57.260Z,3.87
2023-04-21T11:07:25.402Z,3.90
2023-04-21T11:10:02.452Z,3.73
2023-04-21T11:12:31.568Z,3.90
2023-04-21T11:14:58.783Z,6.13
2023-04-21T11:17:26.575Z,6.93
2023-04-21T11:19:55.611Z,6.53
2023-04-21T11:22:25.142Z,6.77
2023-04-21T11:24:55.868Z,6.20
2023-04-21T11:27:23.564Z,5.53
2023-04-21T11:29:51.214Z,4.70
2023-04-21T11:32:19.559Z,4.60
2023-04-21T11:34:48.037Z,5.00
2023-04-21T11:37:20.891Z,5.33
2023-04-21T11:39:48.973Z,4.50
2023-04-21T11:42:23.320Z,4.47
2023-04-21T11:44:50.313Z,4.60
2023-04-21T11:47:37.657Z,4.40
2023-04-21T11:50:05.355Z,4.10
2023-04-21T11:52:36.562Z,4.50
2023-04-21T11:55:12.162Z,4.30
2023-04-21T11:57:41.115Z,4.13
2023-04-21T12:00:16.607Z,4.13
2023-04-21T12:02:44.354Z,4.00
2023-04-21T12:05:13.918Z,4.33
2023-04-21T12:07:44.108Z,3.90
2023-04-21T12:10:17.554Z,3.87
2023-04-21T12:12:46.263Z,3.63
2023-04-21T12:15:21.096Z,3.80
2023-04-21T12:17:50.964Z,3.77
2023-04-21T12:20:20.644Z,3.50
2023-04-21T12:22:48.415Z,3.63
2023-04-21T12:25:16.005Z,4.20
2023-04-21T12:27:54.193Z,4.27
2023-04-21T12:30:21.996Z,3.87
2023-04-21T12:32:49.294Z,3.90
2023-04-21T12:35:16.470Z,3.63
2023-04-21T12:37:45.093Z,4.00
2023-04-21T12:40:12.269Z,4.00
2023-04-21T12:42:40.774Z,3.73
2023-04-21T12:45:08.264Z,3.47
2023-04-21T12:47:37.698Z,3.60
2023-04-21T12:50:05.602Z,3.30
2023-04-21T12:52:32.560Z,4.00
2023-04-21T12:55:00.571Z,3.70
2023-04-21T12:57:27.628Z,3.33
2023-04-21T12:59:55.171Z,3.57
2023-04-21T13:02:22.729Z,3.30
2023-04-21T13:04:50.629Z,3.30
2023-04-21T13:07:22.888Z,3.37
2023-04-21T13:09:49.926Z,3.30
2023-04-21T13:12:17.816Z,3.30
2023-04-21T13:14:47.449Z,3.50
2023-04-21T13:17:17.017Z,3.53
2023-04-21T13:19:44.721Z,3.93
2023-04-21T13:22:11.844Z,3.23
2023-04-21T13:24:41.380Z,3.20
2023-04-21T13:27:08.617Z,3.60
2023-04-21T13:29:36.029Z,3.73
2023-04-21T13:32:05.395Z,3.30
2023-04-21T13:34:35.895Z,3.10
2023-04-21T13:37:04.909Z,3.37
2023-04-21T13:39:32.317Z,2.83
2023-04-21T13:42:00.584Z,3.33
2023-04-21T13:44:27.510Z,3.07
2023-04-21T13:46:58.775Z,2.90
2023-04-21T13:53:58.901Z,3.20
2023-04-21T13:56:26.247Z,3.33
2023-04-21T13:58:54.279Z,3.20
2023-04-21T14:01:21.989Z,3.70
2023-04-21T14:03:50.896Z,3.03
2023-04-21T14:06:20.209Z,3.27
2023-04-21T14:08:47.215Z,3.43
2023-04-21T14:11:14.899Z,3.53
2023-04-21T14:13:51.953Z,3.63
2023-04-21T14:16:29.018Z,3.53
2023-04-21T14:18:57.121Z,3.40
2023-04-21T14:21:24.299Z,3.23
2023-04-21T14:23:53.912Z,3.40
2023-04-21T14:26:22.455Z,3.40
2023-04-21T14:28:50.933Z,3.87
2023-04-21T14:31:19.679Z,3.50
2023-04-21T14:33:49.108Z,3.10
2023-04-21T14:36:16.267Z,3.63
2023-04-21T14:38:43.307Z,3.17
2023-04-21T14:41:10.465Z,2.93
2023-04-21T14:43:39.188Z,3.33
2023-04-21T14:46:07.536Z,3.10
2023-04-21T14:48:34.973Z,3.43
2023-04-21T14:51:02.125Z,3.30
2023-04-21T14:53:29.213Z,3.10
2023-04-21T14:55:56.278Z,3.50
2023-04-21T14:58:23.444Z,3.40
2023-04-21T15:00:51.274Z,3.67
2023-04-21T15:03:18.463Z,3.53
2023-04-21T15:05:48.368Z,3.50
2023-04-21T15:08:18.332Z,3.83
2023-04-21T15:10:45.457Z,3.70
2023-04-21T15:13:14.753Z,3.63
2023-04-21T15:15:41.700Z,4.00
2023-04-21T15:18:08.852Z,3.80
2023-04-21T15:20:44.579Z,3.70
2023-04-21T15:23:16.190Z,4.00
2023-04-21T15:25:44.717Z,3.70
2023-04-21T15:28:13.926Z,3.90
2023-04-21T15:30:41.513Z,4.13
2023-04-21T15:33:09.042Z,7.00
2023-04-21T15:35:36.432Z,6.63
2023-04-21T15:38:04.081Z,6.53
2023-04-21T15:40:31.063Z,4.70
2023-04-21T15:43:00.005Z,5.70
2023-04-21T15:45:28.546Z,4.97
2023-04-21T15:47:55.890Z,4.87
2023-04-21T15:50:22.867Z,4.50
2023-04-21T15:52:50.220Z,5.00
2023-04-21T15:55:17.659Z,4.80
2023-04-21T15:57:45.860Z,4.47
2023-04-21T16:00:16.321Z,4.60
2023-04-21T16:02:43.428Z,4.30
2023-04-21T16:05:10.874Z,4.60
2023-04-21T16:07:37.994Z,4.70
2023-04-21T16:10:05.855Z,5.07
2023-04-21T16:12:32.799Z,4.50
2023-04-21T16:15:09.365Z,4.70
2023-04-21T16:17:49.381Z,4.67
2023-04-21T16:20:16.605Z,4.53
2023-04-21T16:22:43.691Z,4.63
2023-04-21T16:25:17.097Z,4.53
2023-04-21T16:27:44.313Z,4.60
2023-04-21T16:30:12.175Z,4.50
2023-04-21T16:32:39.449Z,4.33
2023-04-21T16:35:10.065Z,4.80
2023-04-21T16:37:44.590Z,4.60
2023-04-21T16:40:12.982Z,4.40
2023-04-21T16:42:40.030Z,4.27
2023-04-21T16:45:09.029Z,4.20
2023-04-21T16:47:41.642Z,4.23
2023-04-21T16:50:10.363Z,4.60
2023-04-21T16:52:37.569Z,3.90
2023-04-21T16:55:06.448Z,4.60
2023-04-21T16:57:34.391Z,4.47
2023-04-21T17:00:01.870Z,4.40
2023-04-21T17:02:28.857Z,4.40
2023-04-21T17:04:55.987Z,4.40
2023-04-21T17:07:22.896Z,4.50
2023-04-21T17:09:51.274Z,4.07
2023-04-21T17:12:19.444Z,4.20
2023-04-21T17:14:46.926Z,4.50
2023-04-21T17:17:14.055Z,4.40
2023-04-21T17:19:41.312Z,4.03
2023-04-21T17:22:08.742Z,4.43
2023-04-21T17:24:51.806Z,4.33
2023-04-21T17:27:21.107Z,4.40
2023-04-21T17:29:48.502Z,4.10
2023-04-21T17:32:15.774Z,4.93
2023-04-21T17:34:44.480Z,4.43
2023-04-21T17:37:13.896Z,4.30
2023-04-21T17:39:41.095Z,4.20
2023-04-21T17:42:08.122Z,4.57
2023-04-21T17:44:35.560Z,4.70
2023-04-21T17:47:08.099Z,4.27
2023-04-21T17:49:37.095Z,4.60
2023-04-21T17:52:05.898Z,4.63
2023-04-21T17:54:34.960Z,4.50
2023-04-21T17:57:03.416Z,4.60
2023-04-21T17:59:30.951Z,4.67
2023-04-21T18:02:01.958Z,4.70
2023-04-21T18:04:31.091Z,5.17
2023-04-21T18:07:03.754Z,5.17
2023-04-21T18:09:31.681Z,5.10
2023-04-21T18:11:59.890Z,5.20
2023-04-21T18:14:27.949Z,5.00
2023-04-21T18:16:55.035Z,5.23
2023-04-21T18:19:22.152Z,5.43
2023-04-21T18:21:50.081Z,4.70
2023-04-21T18:24:17.266Z,5.37
2023-04-21T18:26:45.402Z,6.30
2023-04-21T18:29:12.530Z,9.20
2023-04-21T18:31:41.278Z,12.17
2023-04-21T18:34:09.136Z,16.00
2023-04-21T18:36:38.617Z,15.20
2023-04-21T18:39:07.868Z,17.00
2023-04-21T18:41:34.842Z,16.70
2023-04-21T18:44:06.842Z,14.30
2023-04-21T18:46:35.290Z,14.90
2023-04-21T18:49:02.658Z,15.77
2023-04-21T18:51:32.298Z,12.70
2023-04-21T18:54:00.594Z,10.93
2023-04-21T18:56:30.747Z,10.47
2023-04-21T18:58:59.918Z,10.03
2023-04-21T19:01:31.071Z,10.37
2023-04-21T19:03:59.637Z,9.30
2023-04-21T19:06:28.086Z,9.10
2023-04-21T19:08:57.373Z,9.17
2023-04-21T19:11:33.492Z,7.87
2023-04-21T19:14:01.829Z,7.47
2023-04-21T19:16:29.334Z,7.10
2023-04-21T19:18:59.628Z,7.20
2023-04-21T19:21:26.734Z,6.83
2023-04-21T19:23:55.046Z,6.53
2023-04-21T19:26:24.060Z,6.13
2023-04-21T19:28:53.715Z,6.00
2023-04-21T19:31:23.381Z,6.30
2023-04-21T19:33:50.979Z,5.93
2023-04-21T19:36:21.321Z,5.47
2023-04-21T19:38:49.109Z,5.80
2023-04-21T19:41:16.568Z,5.30
2023-04-21T19:43:45.947Z,5.60
2023-04-21T19:46:14.469Z,5.70
2023-04-21T19:48:42.857Z,5.50
2023-04-21T19:51:11.139Z,5.43
2023-04-21T19:53:38.605Z,5.80
2023-04-21T19:56:08.059Z,5.60
2023-04-21T19:58:40.745Z,6.07
2023-04-21T20:01:08.463Z,5.40
2023-04-21T20:03:37.369Z,5.70
2023-04-21T20:06:05.285Z,5.80
2023-04-21T20:08:32.729Z,6.27
2023-04-21T20:11:01.281Z,5.93
2023-04-21T20:13:31.546Z,6.17
2023-04-21T20:15:59.679Z,5.97
2023-04-21T20:18:27.773Z,6.20
2023-04-21T20:20:55.013Z,6.60
2023-04-21T20:23:22.006Z,6.60
2023-04-21T20:25:49.717Z,6.30
2023-04-21T20:28:18.336Z,7.20
2023-04-21T20:30:45.934Z,6.53
2023-04-21T20:33:18.311Z,7.23
2023-04-21T20:35:49.582Z,6.40
2023-04-21T20:38:19.210Z,6.57
2023-04-21T20:40:50.412Z,5.90
2023-04-21T20:43:18.974Z,6.27
2023-04-21T20:45:47.539Z,6.80
2023-04-21T20:48:14.662Z,6.47
2023-04-21T20:50:45.996Z,6.53
2023-04-21T20:53:13.841Z,6.70
2023-04-21T20:55:40.811Z,7.57
2023-04-21T20:58:07.916Z,7.60
2023-04-21T21:00:36.981Z,7.37
2023-04-21T21:03:05.675Z,7.63
2023-04-21T21:05:34.194Z,7.07
2023-04-21T21:08:02.416Z,7.57
2023-04-21T21:10:31.020Z,7.70
2023-04-21T21:12:59.612Z,7.57
2023-04-21T21:15:32.753Z,8.27
2023-04-21T21:18:00.241Z,8.67
2023-04-21T21:20:28.390Z,7.87
2023-04-21T21:22:55.476Z,8.37
2023-04-21T21:25:22.576Z,7.37
2023-04-21T21:27:50.123Z,7.73
2023-04-21T21:30:17.445Z,8.00
2023-04-21T21:32:46.615Z,7.97
2023-04-21T21:35:16.144Z,7.80
2023-04-21T21:37:43.156Z,7.83
2023-04-21T21:40:11.610Z,7.40
2023-04-21T21:42:39.609Z,7.50
2023-04-21T21:45:08.575Z,7.80
2023-04-21T21:47:40.304Z,7.73
2023-04-21T21:50:09.521Z,8.20
2023-04-21T21:52:36.587Z,7.43
2023-04-21T21:55:05.702Z,7.83
2023-04-21T21:57:32.824Z,7.53
2023-04-21T22:00:01.965Z,7.30
2023-04-21T22:02:32.187Z,7.73
2023-04-21T22:04:59.658Z,7.10
2023-04-21T22:07:27.024Z,7.37
2023-04-21T22:09:54.001Z,7.93
2023-04-21T22:12:20.939Z,7.33
2023-04-21T22:14:52.233Z,7.47
2023-04-21T22:17:20.281Z,7.60
2023-04-21T22:19:47.255Z,8.17
2023-04-21T22:22:14.280Z,8.17
2023-04-21T22:24:41.237Z,8.10
2023-04-21T22:27:09.289Z,7.77
2023-04-21T22:29:36.500Z,8.53
2023-04-21T22:32:05.946Z,8.20
2023-04-21T22:34:32.881Z,8.10
2023-04-21T22:37:02.247Z,8.40
2023-04-21T22:39:29.371Z,8.27
2023-04-21T22:41:58.304Z,8.37
2023-04-21T22:44:25.477Z,7.70
2023-04-21T22:46:52.471Z,7.93
2023-04-21T22:49:20.141Z,7.70
2023-04-21T22:51:47.389Z,7.80
2023-04-21T22:54:15.406Z,8.07
2023-04-21T22:56:42.493Z,7.83
2023-04-21T22:59:09.446Z,8.17
2023-04-21T23:01:36.643Z,7.80
2023-04-21T23:04:03.771Z,7.87
2023-04-21T23:06:32.820Z,7.77
2023-04-21T23:09:00.055Z,8.80
2023-04-21T23:11:27.285Z,7.97
2023-04-21T23:13:55.797Z,8.50
2023-04-21T23:16:24.027Z,8.55
2023-04-21T23:18:55.870Z,8.53
2023-04-21T23:21:26.756Z,7.90
2023-04-21T23:23:54.852Z,8.00
2023-04-21T23:26:24.156Z,8.37
2023-04-21T23:28:53.709Z,8.50
2023-04-21T23:31:24.573Z,8.30
2023-04-21T23:33:53.985Z,8.43
2023-04-21T23:36:20.932Z,8.27
2023-04-21T23:38:52.265Z,7.70
2023-04-21T23:41:30.036Z,8.03
2023-04-21T23:43:58.776Z,8.00
2023-04-21T23:46:30.714Z,7.90
2023-04-21T23:48:59.805Z,8.00
2023-04-21T23:51:28.264Z,8.33
2023-04-21T23:53:56.648Z,7.87
2023-04-21T23:56:28.138Z,8.40
2023-04-21T23:58:56.736Z,7.80
